createdAt,value
2024-03-03T00:00:35.502Z,99556.59
2024-03-03T00:03:10.917Z,99553.22
2024-03-03T00:05:44.579Z,99549.53
2024-03-03T00:08:17.350Z,99543.38
2024-03-03T00:10:51.419Z,99550.16
2024-03-03T00:13:26.051Z,99540.50
2024-03-03T00:15:59.126Z,99551.25
2024-03-03T00:18:31.968Z,99547.72
2024-03-03T00:21:06.311Z,99528.19
2024-03-03T00:23:38.989Z,99549.72
2024-03-03T00:26:11.899Z,99530.66
2024-03-03T00:28:44.886Z,99542.72
2024-03-03T00:31:20.001Z,99562.84
2024-03-03T00:33:52.878Z,99562.09
2024-03-03T00:36:25.694Z,99552.13
2024-03-03T00:38:58.359Z,99544.97
2024-03-03T00:41:31.196Z,99560.81
2024-03-03T00:44:04.463Z,99556.81
2024-03-03T00:46:37.253Z,99573.69
2024-03-03T00:49:09.963Z,99563.94
2024-03-03T00:51:42.676Z,99569.06
2024-03-03T00:54:15.313Z,99547.22
2024-03-03T00:56:47.967Z,99548.09
2024-03-03T00:59:20.917Z,99556.44
2024-03-03T01:01:53.615Z,99537.34
2024-03-03T01:04:26.252Z,99567.69
2024-03-03T01:06:58.969Z,99551.56
2024-03-03T01:09:31.677Z,99537.16
2024-03-03T01:12:04.825Z,99547.66
2024-03-03T01:14:37.489Z,99542.72
2024-03-03T01:17:13.003Z,99561.75
2024-03-03T01:19:46.791Z,99550.22
2024-03-03T01:22:28.880Z,99549.88
2024-03-03T01:25:01.643Z,99544.06
2024-03-03T01:27:34.693Z,99560.03
2024-03-03T01:30:08.752Z,99547.31
2024-03-03T01:32:41.410Z,99554.59
2024-03-03T01:35:14.136Z,99540.09
2024-03-03T01:37:46.771Z,99548.94
2024-03-03T01:40:19.550Z,99535.84
2024-03-03T01:42:59.324Z,99543.75
2024-03-03T01:45:32.064Z,99540.75
2024-03-03T01:48:05.294Z,99531.28
2024-03-03T01:50:39.993Z,99543.69
2024-03-03T01:53:14.136Z,99543.59
2024-03-03T01:55:48.093Z,99533.81
2024-03-03T01:58:24.536Z,99535.31
2024-03-03T02:01:07.164Z,99545.41
2024-03-03T02:03:40.715Z,99528.03
2024-03-03T02:06:18.736Z,99518.22
2024-03-03T02:08:51.842Z,99530.78
2024-03-03T02:11:24.597Z,99530.03
2024-03-03T02:13:57.513Z,99535.88
2024-03-03T02:16:30.210Z,99533.22
2024-03-03T02:19:03.200Z,99535.06
2024-03-03T02:21:36.017Z,99537.81
2024-03-03T02:24:08.681Z,99521.06
2024-03-03T02:26:41.350Z,99529.06
2024-03-03T02:29:15.755Z,99523.59
2024-03-03T02:31:50.255Z,99520.50
2024-03-03T02:34:23.346Z,99537.19
2024-03-03T02:37:02.470Z,99525.91
2024-03-03T02:39:35.239Z,99534.34
2024-03-03T02:42:08.046Z,99547.34
2024-03-03T02:44:40.654Z,99539.66
2024-03-03T02:47:13.513Z,99523.63
2024-03-03T02:49:46.189Z,99532.78
2024-03-03T02:52:19.159Z,99536.41
2024-03-03T02:54:51.913Z,99522.31
2024-03-03T02:57:24.587Z,99518.78
2024-03-03T02:59:57.303Z,99524.72
2024-03-03T03:02:31.119Z,99522.69
2024-03-03T03:05:04.493Z,99538.41
2024-03-03T03:07:37.197Z,99516.78
2024-03-03T03:10:18.076Z,99531.13
2024-03-03T03:12:50.935Z,99524.53
2024-03-03T03:15:23.941Z,99522.91
2024-03-03T03:17:56.647Z,99534.47
2024-03-03T03:20:29.360Z,99525.00
2024-03-03T03:23:01.990Z,99512.31
2024-03-03T03:25:35.179Z,99521.34
2024-03-03T03:28:14.118Z,99520.91
2024-03-03T03:30:46.811Z,99520.34
2024-03-03T03:33:19.538Z,99511.31
2024-03-03T03:35:52.276Z,99517.06
2024-03-03T03:38:24.921Z,99519.59
2024-03-03T03:40:57.573Z,99530.50
2024-03-03T03:43:30.712Z,99534.66
2024-03-03T03:46:03.459Z,99533.34
2024-03-03T03:48:36.151Z,99537.50
2024-03-03T03:51:09.100Z,99539.56
2024-03-03T03:53:41.751Z,99520.13
2024-03-03T03:56:21.669Z,99528.47
2024-03-03T03:58:54.504Z,99541.19
2024-03-03T04:01:29.747Z,99532.16
2024-03-03T04:04:02.830Z,99544.72
2024-03-03T04:06:35.570Z,99548.66
2024-03-03T04:09:08.311Z,99541.38
2024-03-03T04:12:00.651Z,99552.41
2024-03-03T04:14:33.446Z,99554.59
2024-03-03T04:17:10.335Z,99547.19
2024-03-03T04:19:43.002Z,99545.31
2024-03-03T04:22:15.781Z,99541.59
2024-03-03T04:24:48.598Z,99557.50
2024-03-03T04:27:22.450Z,99557.63
2024-03-03T04:29:55.085Z,99556.22
2024-03-03T04:32:34.029Z,99576.00
2024-03-03T04:35:07.133Z,99570.28
2024-03-03T04:37:39.794Z,99568.06
2024-03-03T04:40:12.524Z,99572.25
2024-03-03T04:42:47.263Z,99573.56
2024-03-03T04:45:20.234Z,99585.22
2024-03-03T04:47:52.968Z,99574.22
2024-03-03T04:50:25.608Z,99593.91
2024-03-03T04:52:58.386Z,99584.34
2024-03-03T04:55:31.389Z,99590.00
2024-03-03T04:58:06.169Z,99599.13
2024-03-03T05:00:38.837Z,99571.63
2024-03-03T05:03:12.380Z,99603.75
2024-03-03T05:05:45.069Z,99594.16
2024-03-03T05:08:19.949Z,99594.84
2024-03-03T05:10:52.841Z,99590.34
2024-03-03T05:13:26.683Z,99596.94
2024-03-03T05:15:59.922Z,99587.25
2024-03-03T05:18:33.619Z,99591.88
2024-03-03T05:21:06.266Z,99578.69
2024-03-03T05:23:54.440Z,99606.84
2024-03-03T05:26:27.651Z,99603.31
2024-03-03T05:29:00.356Z,99598.59
2024-03-03T05:31:42.176Z,99614.66
2024-03-03T05:34:16.420Z,99612.47
2024-03-03T05:36:49.546Z,99603.22
2024-03-03T05:39:22.909Z,99599.72
2024-03-03T05:41:59.405Z,99601.34
2024-03-03T05:44:35.408Z,99622.00
2024-03-03T05:47:10.520Z,99614.66
2024-03-03T05:49:44.267Z,99635.56
2024-03-03T05:52:17.047Z,99636.00
2024-03-03T05:54:49.802Z,99635.66
2024-03-03T05:57:22.593Z,99617.50
2024-03-03T05:59:55.338Z,99625.88
2024-03-03T06:02:28.057Z,99625.00
2024-03-03T06:05:00.743Z,99612.13
2024-03-03T06:07:33.511Z,99630.06
2024-03-03T06:10:06.748Z,99644.03
2024-03-03T06:12:39.499Z,99635.56
2024-03-03T06:15:12.330Z,99635.91
2024-03-03T06:17:45.067Z,99661.75
2024-03-03T06:20:27.435Z,99658.22
2024-03-03T06:23:00.050Z,99657.88
2024-03-03T06:25:33.148Z,99668.00
2024-03-03T06:28:16.185Z,99663.28
2024-03-03T06:30:48.959Z,99660.63
2024-03-03T06:33:22.097Z,99667.47
2024-03-03T06:35:54.907Z,99673.72
2024-03-03T06:38:27.852Z,99685.38
2024-03-03T06:41:00.551Z,99676.72
2024-03-03T06:43:33.282Z,99671.97
2024-03-03T06:46:06.023Z,99680.09
2024-03-03T06:48:39.793Z,99664.25
2024-03-03T06:51:14.038Z,99694.44
2024-03-03T06:53:46.747Z,99705.53
2024-03-03T06:56:19.707Z,99712.81
2024-03-03T06:58:52.357Z,99725.59
2024-03-03T07:01:25.111Z,99725.16
2024-03-03T07:04:16.498Z,99728.22
2024-03-03T07:06:49.192Z,99718.66
2024-03-03T07:09:25.130Z,99729.78
2024-03-03T07:11:59.137Z,99733.75
2024-03-03T07:14:33.647Z,99737.69
2024-03-03T07:17:06.206Z,99738.47
2024-03-03T07:19:38.909Z,99744.19
2024-03-03T07:22:11.789Z,99730.44
2024-03-03T07:24:44.471Z,99728.25
2024-03-03T07:27:17.152Z,99731.31
2024-03-03T07:29:49.808Z,99729.34
2024-03-03T07:32:23.134Z,99720.19
2024-03-03T07:34:59.370Z,99713.81
2024-03-03T07:37:33.022Z,99698.72
2024-03-03T07:40:12.831Z,99713.06
2024-03-03T07:42:45.598Z,99691.25
2024-03-03T07:45:18.447Z,99698.06
2024-03-03T07:47:51.163Z,99688.63
2024-03-03T07:50:23.891Z,99698.06
2024-03-03T07:52:56.650Z,99705.88
2024-03-03T07:55:30.721Z,99711.56
2024-03-03T07:58:04.158Z,99704.03
2024-03-03T08:00:37.929Z,99716.78
2024-03-03T08:03:11.103Z,99693.97
2024-03-03T08:05:43.836Z,99704.03
2024-03-03T08:08:16.638Z,99717.09
2024-03-03T08:10:49.587Z,99723.13
2024-03-03T08:13:22.313Z,99709.66
2024-03-03T08:15:55.640Z,99726.31
2024-03-03T08:18:28.559Z,99734.88
2024-03-03T08:21:03.234Z,99743.97
2024-03-03T08:23:35.922Z,99746.91
2024-03-03T08:26:12.659Z,99735.34
2024-03-03T08:28:45.427Z,99743.06
2024-03-03T08:31:19.777Z,99749.78
2024-03-03T08:33:52.502Z,99760.88
2024-03-03T08:36:25.339Z,99747.88
2024-03-03T08:38:58.353Z,99756.84
2024-03-03T08:41:38.777Z,99752.72
2024-03-03T08:44:11.521Z,99756.13
2024-03-03T08:46:44.256Z,99746.94
2024-03-03T08:49:27.272Z,99748.78
2024-03-03T08:52:00.281Z,99769.38
2024-03-03T08:54:33.636Z,99767.59
2024-03-03T08:57:10.396Z,99778.06
2024-03-03T08:59:56.588Z,99791.56
2024-03-03T09:02:29.492Z,99793.56
2024-03-03T09:05:02.891Z,99794.50
2024-03-03T09:07:37.396Z,99818.78
2024-03-03T09:10:19.313Z,99818.91
2024-03-03T09:12:52.003Z,99807.72
2024-03-03T09:15:24.779Z,99821.06
2024-03-03T09:17:57.992Z,99806.31
2024-03-03T09:20:30.691Z,99799.72
2024-03-03T09:23:03.811Z,99819.53
2024-03-03T09:25:36.579Z,99808.16
2024-03-03T09:28:21.762Z,99813.81
2024-03-03T09:30:55.954Z,99816.09
2024-03-03T09:33:28.795Z,99805.34
2024-03-03T09:36:01.762Z,99825.44
2024-03-03T09:38:37.670Z,99806.47
2024-03-03T09:41:10.750Z,99813.38
2024-03-03T09:43:49.773Z,99804.34
2024-03-03T09:46:28.380Z,99797.53
2024-03-03T09:49:04.080Z,99791.25
2024-03-03T09:51:42.239Z,99779.81
2024-03-03T09:54:19.781Z,99800.16
2024-03-03T09:56:54.498Z,99779.00
2024-03-03T09:59:27.276Z,99783.41
2024-03-03T10:02:00.464Z,99793.47
2024-03-03T10:04:36.107Z,99803.47
2024-03-03T10:07:12.831Z,99805.84
2024-03-03T10:09:57.489Z,99807.56
2024-03-03T10:12:32.975Z,99802.41
2024-03-03T10:15:09.550Z,99790.19
2024-03-03T10:17:42.450Z,99801.59
2024-03-03T10:20:15.383Z,99818.13
2024-03-03T10:22:48.562Z,99811.13
2024-03-03T10:25:23.304Z,99807.28
2024-03-03T10:28:14.535Z,99819.66
2024-03-03T10:30:47.574Z,99816.34
2024-03-03T10:33:27.173Z,99823.41
2024-03-03T10:36:12.143Z,99803.09
2024-03-03T10:38:57.226Z,99810.53
2024-03-03T10:41:30.115Z,99800.56
2024-03-03T10:44:03.341Z,99819.38
2024-03-03T10:46:39.075Z,99800.06
2024-03-03T10:49:15.050Z,99812.44
2024-03-03T10:51:48.874Z,99812.53
2024-03-03T10:54:24.170Z,99811.25
2024-03-03T10:56:57.655Z,99812.84
2024-03-03T10:59:46.925Z,99808.91
2024-03-03T11:02:22.779Z,99823.84
2024-03-03T11:05:05.430Z,99814.59
2024-03-03T11:07:39.194Z,99821.94
2024-03-03T11:10:13.531Z,99827.47
2024-03-03T11:12:51.917Z,99811.97
2024-03-03T11:15:27.590Z,99827.31
2024-03-03T11:18:18.946Z,99822.13
2024-03-03T11:20:57.554Z,99822.28
2024-03-03T11:23:59.432Z,99807.00
2024-03-03T11:26:44.079Z,99798.19
2024-03-03T11:29:21.004Z,99811.88
2024-03-03T11:31:54.253Z,99798.78
2024-03-03T11:34:27.565Z,99807.16
2024-03-03T11:37:02.108Z,99793.47
2024-03-03T11:39:34.899Z,99787.91
2024-03-03T11:42:34.119Z,99798.09
2024-03-03T11:45:08.491Z,99781.28
2024-03-03T11:47:57.252Z,99802.19
2024-03-03T11:50:31.367Z,99788.00
2024-03-03T11:53:04.086Z,99805.81
2024-03-03T11:55:40.313Z,99791.28
2024-03-03T11:58:17.610Z,99786.44
2024-03-03T12:01:11.294Z,99774.41
2024-03-03T12:03:45.447Z,99782.09
2024-03-03T12:06:25.866Z,99793.72
2024-03-03T12:09:05.969Z,99788.66
2024-03-03T12:11:42.973Z,99791.22
2024-03-03T12:14:15.923Z,99789.25
2024-03-03T12:16:59.032Z,99799.91
2024-03-03T12:19:36.095Z,99804.41
2024-03-03T12:22:09.368Z,99795.97
2024-03-03T12:24:42.078Z,99806.63
2024-03-03T12:27:14.854Z,99800.75
2024-03-03T12:30:02.211Z,99794.69
2024-03-03T12:32:34.941Z,99797.97
2024-03-03T12:35:09.885Z,99785.66
2024-03-03T12:37:42.969Z,99804.53
2024-03-03T12:40:19.114Z,99791.59
2024-03-03T12:42:52.907Z,99792.81
2024-03-03T12:45:26.203Z,99798.88
2024-03-03T12:47:58.991Z,99797.03
2024-03-03T12:50:31.751Z,99785.34
2024-03-03T12:53:07.616Z,99795.00
2024-03-03T12:55:43.500Z,99792.13
2024-03-03T12:58:16.664Z,99803.16
2024-03-03T13:00:51.274Z,99800.88
2024-03-03T13:03:23.987Z,99797.47
2024-03-03T13:05:56.668Z,99790.41
2024-03-03T13:08:30.579Z,99786.22
2024-03-03T13:11:03.360Z,99796.66
2024-03-03T13:13:36.170Z,99788.53
2024-03-03T13:16:13.548Z,99799.16
2024-03-03T13:19:02.772Z,99800.66
2024-03-03T13:21:37.599Z,99793.81
2024-03-03T13:24:14.482Z,99788.75
2024-03-03T13:26:47.320Z,99786.00
2024-03-03T13:29:20.108Z,99790.31
2024-03-03T13:31:53.938Z,99801.47
2024-03-03T13:34:26.693Z,99795.56
2024-03-03T13:36:59.367Z,99780.84
2024-03-03T13:39:32.092Z,99780.03
2024-03-03T13:42:13.079Z,99783.38
2024-03-03T13:44:46.603Z,99777.94
2024-03-03T13:47:19.438Z,99778.97
2024-03-03T13:49:52.219Z,99762.72
2024-03-03T13:52:25.327Z,99795.34
2024-03-03T13:54:58.001Z,99788.81
2024-03-03T13:57:35.797Z,99794.50
2024-03-03T14:00:15.740Z,99800.59
2024-03-03T14:02:48.627Z,99795.63
2024-03-03T14:05:21.412Z,99790.06
2024-03-03T14:07:54.446Z,99797.03
2024-03-03T14:10:27.842Z,99795.59
2024-03-03T14:13:12.980Z,99786.34
2024-03-03T14:15:48.484Z,99796.28
2024-03-03T14:18:21.271Z,99800.72
2024-03-03T14:20:54.125Z,99807.59
2024-03-03T14:23:32.023Z,99798.56
2024-03-03T14:26:04.968Z,99812.63
2024-03-03T14:28:37.908Z,99802.25
2024-03-03T14:31:10.594Z,99822.13
2024-03-03T14:33:43.341Z,99826.22
2024-03-03T14:36:17.202Z,99816.66
2024-03-03T14:38:50.388Z,99833.88
2024-03-03T14:41:23.193Z,99841.38
2024-03-03T14:43:57.982Z,99837.84
2024-03-03T14:46:32.430Z,99838.59
2024-03-03T14:49:06.540Z,99844.38
2024-03-03T14:51:39.374Z,99845.00
2024-03-03T14:54:14.123Z,99850.28
2024-03-03T14:56:58.686Z,99839.63
2024-03-03T14:59:31.889Z,99850.72
2024-03-03T15:02:08.346Z,99850.97
2024-03-03T15:04:51.625Z,99849.88
2024-03-03T15:07:25.269Z,99840.78
2024-03-03T15:13:10.403Z,99846.78
2024-03-03T15:15:43.302Z,99851.63
2024-03-03T15:18:19.574Z,99836.72
2024-03-03T15:20:52.318Z,99843.88
2024-03-03T15:23:25.648Z,99841.31
2024-03-03T15:25:59.766Z,99827.06
2024-03-03T15:28:32.654Z,99838.50
2024-03-03T15:31:27.155Z,99855.69
2024-03-03T15:34:00.915Z,99840.06
2024-03-03T15:36:43.490Z,99835.59
2024-03-03T15:39:17.332Z,99850.38
2024-03-03T15:41:52.187Z,99844.47
2024-03-03T15:45:10.985Z,99857.19
2024-03-03T15:47:46.967Z,99856.31
2024-03-03T15:50:21.931Z,99834.13
2024-03-03T15:52:54.638Z,99856.63
2024-03-03T15:55:27.674Z,99847.69
2024-03-03T15:58:04.005Z,99862.63
2024-03-03T16:00:39.017Z,99862.66
2024-03-03T16:03:11.770Z,99854.69
2024-03-03T16:05:48.811Z,99859.66
2024-03-03T16:08:21.689Z,99846.09
2024-03-03T16:10:54.936Z,99863.13
2024-03-03T16:13:29.446Z,99843.72
2024-03-03T16:16:02.499Z,99871.97
2024-03-03T16:18:35.383Z,99868.47
2024-03-03T16:21:11.398Z,99874.00
2024-03-03T16:23:44.699Z,99859.25
2024-03-03T16:26:18.764Z,99863.28
2024-03-03T16:28:51.769Z,99879.56
2024-03-03T16:31:24.445Z,99865.16
2024-03-03T16:33:57.165Z,99864.22
2024-03-03T16:36:30.468Z,99867.50
2024-03-03T16:39:06.130Z,99868.50
2024-03-03T16:41:52.053Z,99877.69
2024-03-03T16:44:24.688Z,99882.84
2024-03-03T16:46:57.491Z,99871.03
2024-03-03T16:49:30.673Z,99878.44
2024-03-03T16:52:03.791Z,99886.56
2024-03-03T16:54:40.600Z,99890.13
2024-03-03T16:57:13.304Z,99881.34
2024-03-03T16:59:46.039Z,99890.41
2024-03-03T17:02:23.113Z,99888.69
2024-03-03T17:04:55.789Z,99904.38
2024-03-03T17:07:29.240Z,99922.22
2024-03-03T17:10:05.549Z,99903.91
2024-03-03T17:12:39.283Z,99924.34
2024-03-03T17:15:12.921Z,99920.63
2024-03-03T17:17:45.818Z,99930.63
2024-03-03T17:20:18.742Z,99934.44
2024-03-03T17:22:51.535Z,99952.72
2024-03-03T17:25:36.912Z,99932.97
2024-03-03T17:28:13.467Z,99960.47
2024-03-03T17:30:51.212Z,99961.97
2024-03-03T17:33:26.423Z,99972.78
2024-03-03T17:35:59.623Z,99955.59
2024-03-03T17:38:34.500Z,99981.28
2024-03-03T17:41:07.717Z,99993.50
2024-03-03T17:43:40.478Z,99972.53
2024-03-03T17:46:13.464Z,99992.19
2024-03-03T17:48:46.332Z,100003.53
2024-03-03T17:51:18.939Z,99999.75
2024-03-03T17:53:52.598Z,100018.06
2024-03-03T17:56:25.243Z,100024.94
2024-03-03T17:58:57.984Z,100010.22
2024-03-03T18:01:31.139Z,100014.00
2024-03-03T18:04:05.284Z,100049.41
2024-03-03T18:06:38.256Z,100048.09
2024-03-03T18:09:12.731Z,100045.25
2024-03-03T18:11:45.399Z,100061.69
2024-03-03T18:14:18.088Z,100062.75
2024-03-03T18:16:50.793Z,100072.38
2024-03-03T18:19:23.538Z,100052.72
2024-03-03T18:21:56.251Z,100085.91
2024-03-03T18:24:32.761Z,100080.81
2024-03-03T18:27:05.626Z,100095.13
2024-03-03T18:29:38.756Z,100076.56
2024-03-03T18:32:11.557Z,100066.31
2024-03-03T18:34:44.267Z,100087.81
2024-03-03T18:37:19.099Z,100103.47
2024-03-03T18:39:55.362Z,100089.41
2024-03-03T18:42:35.181Z,100098.91
2024-03-03T18:45:08.396Z,100118.31
2024-03-03T18:47:41.668Z,100106.34
2024-03-03T18:50:20.960Z,100100.22
2024-03-03T18:52:53.971Z,100120.88
2024-03-03T18:55:27.539Z,100117.81
2024-03-03T18:58:00.488Z,100131.25
2024-03-03T19:00:33.285Z,100104.38
2024-03-03T19:03:06.036Z,100144.94
2024-03-03T19:05:39.372Z,100128.22
2024-03-03T19:08:12.029Z,100138.13
2024-03-03T19:10:46.361Z,100138.53
2024-03-03T19:13:19.822Z,100137.78
2024-03-03T19:15:54.241Z,100162.28
2024-03-03T19:18:26.965Z,100145.41
2024-03-03T19:21:02.362Z,100155.56
2024-03-03T19:23:35.165Z,100167.00
2024-03-03T19:26:35.139Z,100167.50
2024-03-03T19:29:07.884Z,100160.84
2024-03-03T19:31:40.601Z,100172.53
2024-03-03T19:34:19.251Z,100162.53
2024-03-03T19:36:52.049Z,100165.66
2024-03-03T19:39:33.614Z,100173.53
2024-03-03T19:42:07.201Z,100167.47
2024-03-03T19:44:41.110Z,100195.53
2024-03-03T19:47:13.840Z,100190.59
2024-03-03T19:49:46.471Z,100188.59
2024-03-03T19:52:19.457Z,100199.59
2024-03-03T19:54:52.848Z,100180.31
2024-03-03T19:57:28.178Z,100200.09
2024-03-03T20:00:09.474Z,100203.41
2024-03-03T20:02:50.929Z,100184.47
2024-03-03T20:05:23.545Z,100200.41
2024-03-03T20:07:56.262Z,100213.97
2024-03-03T20:10:29.614Z,100215.09
2024-03-03T20:13:05.131Z,100212.75
2024-03-03T20:15:38.222Z,100208.72
2024-03-03T20:18:11.045Z,100206.53
2024-03-03T20:20:43.975Z,100219.66
2024-03-03T20:23:16.731Z,100217.03
2024-03-03T20:25:49.508Z,100234.59
2024-03-03T20:28:22.248Z,100234.13
2024-03-03T20:30:55.108Z,100228.38
2024-03-03T20:33:31.362Z,100238.47
2024-03-03T20:36:04.637Z,100232.34
2024-03-03T20:38:45.444Z,100236.28
2024-03-03T20:41:18.073Z,100249.41
2024-03-03T20:43:52.573Z,100253.03
2024-03-03T20:46:43.887Z,100263.53
2024-03-03T20:49:18.992Z,100259.28
2024-03-03T20:51:52.343Z,100260.56
2024-03-03T20:54:25.078Z,100269.78
2024-03-03T20:56:58.742Z,100273.31
2024-03-03T20:59:32.509Z,100263.22
2024-03-03T21:02:08.362Z,100278.41
2024-03-03T21:04:43.899Z,100266.91
2024-03-03T21:07:17.280Z,100268.53
2024-03-03T21:09:50.179Z,100291.88
2024-03-03T21:12:23.024Z,100280.53
2024-03-03T21:14:55.745Z,100284.63
2024-03-03T21:17:28.424Z,100280.28
2024-03-03T21:20:01.081Z,100291.66
2024-03-03T21:22:33.999Z,100294.34
2024-03-03T21:25:08.611Z,100301.41
2024-03-03T21:27:43.410Z,100301.41
2024-03-03T21:30:16.269Z,100279.63
2024-03-03T21:32:49.036Z,100289.06
2024-03-03T21:35:22.032Z,100307.13
2024-03-03T21:37:54.672Z,100283.44
2024-03-03T21:40:31.617Z,100291.69
2024-03-03T21:43:12.045Z,100296.00
2024-03-03T21:45:45.302Z,100303.53
2024-03-03T21:48:18.107Z,100304.03
2024-03-03T21:50:53.639Z,100291.03
2024-03-03T21:54:45.553Z,100297.03
2024-03-03T21:57:37.330Z,100262.75
2024-03-03T22:00:26.965Z,100275.84
2024-03-03T22:07:26.848Z,100286.22
